Time;durP1;ratioP1;P1;durP2;ratioP2;P2;SDS_P1;SDS_P2;PMS_P1;PMS_P2;Temp;Humidity;BMP_temperature;BMP_pressure;BME280_temperature;BME280_humidity;BME280_pressure;Samples;Min_cycle;Max_cycle;Signal;HPM_P1;HPM_P2
2022/09/02 00:02:05;;;;;;;7.43;5.13;;;15.60;1.00;;;;;;7364220;19;20010;-68
2022/09/02 00:04:35;;;;;;;6.97;5.13;;;15.60;1.00;;;;;;7366301;19;20027;-69
2022/09/02 00:07:06;;;;;;;5.40;4.90;;;15.60;1.00;;;;;;7363674;19;20017;-68
2022/09/02 00:09:36;;;;;;;5.85;5.25;;;15.50;1.00;;;;;;7364166;19;20690;-68
2022/09/02 00:12:08;;;;;;;5.80;5.20;;;15.50;1.00;;;;;;7364169;19;20007;-67
2022/09/02 00:14:39;;;;;;;7.15;5.53;;;15.50;1.00;;;;;;7387896;19;20022;-68
2022/09/02 00:17:12;;;;;;;5.13;4.72;;;15.60;1.00;;;;;;7361071;19;20007;-68
2022/09/02 00:19:42;;;;;;;5.68;4.95;;;15.70;1.00;;;;;;7362916;19;20024;-68
2022/09/02 00:22:12;;;;;;;5.75;5.10;;;15.70;1.00;;;;;;7363885;19;20020;-68
2022/09/02 00:24:42;;;;;;;5.53;5.03;;;15.50;1.00;;;;;;7364943;19;20491;-68
2022/09/02 00:27:11;;;;;;;7.57;5.53;;;15.30;1.00;;;;;;7361637;19;20007;-68
2022/09/02 00:29:41;;;;;;;5.78;5.13;;;15.30;1.00;;;;;;7372569;19;20557;-68
2022/09/02 00:32:14;;;;;;;6.53;5.78;;;15.30;1.00;;;;;;7385498;19;20031;-68
2022/09/02 00:34:44;;;;;;;7.43;5.72;;;15.40;1.00;;;;;;7364734;19;20466;-68
2022/09/02 00:37:14;;;;;;;5.75;5.25;;;15.40;1.00;;;;;;7361481;19;20015;-68
2022/09/02 00:39:44;;;;;;;5.97;5.25;;;15.30;1.00;;;;;;7362756;19;20023;-67
2022/09/02 00:42:15;;;;;;;5.90;5.30;;;15.30;1.00;;;;;;7363731;19;20086;-68
2022/09/02 00:44:44;;;;;;;5.43;4.93;;;15.30;1.00;;;;;;7362120;19;20014;-68
2022/09/02 00:47:17;;;;;;;5.05;4.50;;;15.20;1.00;;;;;;7380965;19;20089;-68
2022/09/02 00:49:52;;;;;;;5.82;5.10;;;15.20;1.00;;;;;;7361832;19;20086;-68
2022/09/02 00:52:26;;;;;;;5.53;5.05;;;15.30;1.00;;;;;;7365201;19;20034;-68
2022/09/02 00:55:00;;;;;;;6.88;5.75;;;15.20;1.00;;;;;;7364253;19;20026;-69
2022/09/02 00:57:33;;;;;;;6.05;5.47;;;15.30;1.00;;;;;;7361161;19;20010;-68
2022/09/02 01:00:08;;;;;;;6.15;5.55;;;15.10;1.00;;;;;;7360641;19;20093;-68
2022/09/02 01:02:43;;;;;;;7.03;5.68;;;15.20;1.00;;;;;;7386795;19;20006;-68
2022/09/02 01:05:16;;;;;;;6.22;5.10;;;15.10;1.00;;;;;;7364529;19;20027;-68
2022/09/02 01:07:46;;;;;;;6.30;5.70;;;15.20;1.00;;;;;;7360870;19;20014;-68
2022/09/02 01:10:20;;;;;;;6.00;5.40;;;15.20;1.00;;;;;;7358995;19;20477;-67
2022/09/02 01:12:50;;;;;;;5.50;4.97;;;15.20;1.00;;;;;;7364639;19;20010;-67
2022/09/02 01:15:20;;;;;;;5.28;4.78;;;15.30;1.00;;;;;;7363916;19;20010;-68
2022/09/02 01:17:53;;;;;;;5.78;5.28;;;15.20;1.00;;;;;;7359258;19;20029;-67
2022/09/02 01:20:26;;;;;;;5.50;4.97;;;15.20;1.00;;;;;;7381479;19;20070;-69
2022/09/02 01:22:59;;;;;;;5.40;4.90;;;15.20;1.00;;;;;;7363312;19;20024;-68
2022/09/02 01:25:31;;;;;;;6.10;5.13;;;15.20;1.00;;;;;;7363043;19;20014;-68
2022/09/02 01:28:02;;;;;;;5.30;4.80;;;15.10;1.00;;;;;;7361303;19;20482;-68
2022/09/02 01:30:34;;;;;;;6.72;4.90;;;15.10;1.00;;;;;;7359383;19;20012;-68
2022/09/02 01:33:04;;;;;;;5.10;4.60;;;15.10;1.00;;;;;;7364976;19;20014;-68
2022/09/02 01:35:34;;;;;;;7.00;4.65;;;15.00;1.00;;;;;;7385445;19;20036;-69
2022/09/02 01:38:06;;;;;;;5.75;4.95;;;15.00;1.00;;;;;;7358889;19;20021;-68
2022/09/02 01:40:37;;;;;;;5.10;4.60;;;15.00;1.00;;;;;;7356839;19;20431;-67
2022/09/02 01:43:10;;;;;;;5.47;4.53;;;14.90;1.00;;;;;;7362692;19;20028;-68
2022/09/02 01:45:42;;;;;;;4.40;4.00;;;14.90;1.00;;;;;;7362190;19;20110;-68
2022/09/02 01:48:12;;;;;;;5.15;4.70;;;14.90;1.00;;;;;;7360962;19;20017;-68
2022/09/02 01:50:50;;;;;;;5.40;4.65;;;14.90;1.00;;;;;;7357434;19;20042;-68
2022/09/02 01:53:22;;;;;;;6.63;4.88;;;14.90;1.00;;;;;;7389454;19;20468;-68
2022/09/02 01:55:52;;;;;;;4.97;4.55;;;14.80;1.00;;;;;;7369111;19;20010;-68
2022/09/02 01:58:22;;;;;;;5.57;4.80;;;14.80;1.00;;;;;;7365552;19;20006;-68
2022/09/02 02:00:53;;;;;;;4.88;4.47;;;14.80;1.00;;;;;;7365926;19;20014;-67
2022/09/02 02:03:23;;;;;;;8.05;4.43;;;14.70;1.00;;;;;;7370276;19;20007;-68
2022/09/02 02:05:54;;;;;;;5.05;4.28;;;14.70;1.00;;;;;;7369741;19;20495;-68
2022/09/02 02:08:26;;;;;;;5.03;4.18;;;14.70;1.00;;;;;;7388656;19;20547;-68
2022/09/02 02:10:56;;;;;;;4.65;4.25;;;14.60;1.00;;;;;;7364578;19;20016;-68
2022/09/02 02:13:26;;;;;;;6.03;4.30;;;14.50;1.00;;;;;;7369932;19;20015;-68
2022/09/02 02:15:56;;;;;;;5.25;4.70;;;14.40;1.00;;;;;;7369081;19;20014;-68
2022/09/02 02:18:26;;;;;;;6.25;4.40;;;14.40;1.00;;;;;;7365341;19;20018;-68
2022/09/02 02:20:56;;;;;;;5.05;4.55;;;14.50;1.00;;;;;;7364862;19;20563;-68
2022/09/02 02:23:28;;;;;;;4.30;3.90;;;14.50;1.00;;;;;;7390433;19;20152;-68
2022/09/02 02:25:58;;;;;;;4.78;4.32;;;14.50;1.00;;;;;;7368407;19;20457;-67
2022/09/02 02:28:29;;;;;;;5.15;4.65;;;14.40;1.00;;;;;;7365950;19;20089;-69
2022/09/02 02:30:59;;;;;;;4.93;4.43;;;14.40;1.00;;;;;;7364583;19;20021;-67
2022/09/02 02:33:30;;;;;;;4.80;4.30;;;14.40;1.00;;;;;;7368783;19;20010;-67
2022/09/02 02:36:06;;;;;;;5.38;4.32;;;14.40;1.00;;;;;;7368519;19;20018;-67
2022/09/02 02:38:39;;;;;;;6.80;5.13;;;14.40;1.00;;;;;;7384671;19;20039;-68
2022/09/02 02:41:10;;;;;;;6.03;4.43;;;14.40;1.00;;;;;;7364685;19;20021;-68
2022/09/02 02:43:40;;;;;;;5.10;4.57;;;14.40;1.00;;;;;;7367899;19;20124;-67
2022/09/02 02:46:10;;;;;;;5.28;4.38;;;14.30;1.00;;;;;;7367520;19;21926;-68
2022/09/02 02:48:40;;;;;;;5.10;4.57;;;14.30;1.00;;;;;;7366170;19;20039;-68
2022/09/02 02:51:11;;;;;;;5.28;4.78;;;14.20;1.00;;;;;;7363884;19;20045;-69
2022/09/02 02:53:43;;;;;;;7.50;4.47;;;14.20;1.00;;;;;;7383533;19;20186;-69
2022/09/02 02:56:13;;;;;;;8.45;4.70;;;14.20;1.00;;;;;;7389583;19;20066;-68
2022/09/02 02:58:43;;;;;;;5.53;4.60;;;14.10;1.00;;;;;;7363850;19;20018;-68
2022/09/02 03:01:14;;;;;;;6.38;4.97;;;14.10;1.00;;;;;;7364330;19;20014;-68
2022/09/02 03:03:44;;;;;;;6.43;4.20;;;14.10;1.00;;;;;;7367158;19;20036;-68
2022/09/02 03:06:14;;;;;;;5.75;4.50;;;14.20;1.00;;;;;;7366619;19;20331;-68
2022/09/02 03:08:52;;;;;;;5.57;5.00;;;14.20;1.00;;;;;;7364381;19;20011;-68
2022/09/02 03:11:24;;;;;;;5.78;5.28;;;13.90;1.90;;;;;;7384957;19;20454;-68
2022/09/02 03:13:54;;;;;;;6.47;5.88;;;13.70;5.30;;;;;;7367454;19;20040;-68
2022/09/02 03:16:24;;;;;;;5.57;5.07;;;13.60;6.80;;;;;;7366632;19;20046;-68
2022/09/02 03:18:54;;;;;;;6.18;5.57;;;13.60;8.00;;;;;;7364726;19;20021;-68
2022/09/02 03:21:24;;;;;;;6.32;5.72;;;13.50;8.40;;;;;;7363056;19;20097;-68
2022/09/02 03:23:56;;;;;;;6.78;5.97;;;13.40;10.10;;;;;;7367504;19;20014;-68
2022/09/02 03:26:27;;;;;;;6.95;6.25;;;13.30;10.50;;;;;;7387208;19;20018;-67
2022/09/02 03:28:58;;;;;;;7.22;5.97;;;13.20;11.30;;;;;;7364659;19;20011;-68
2022/09/02 03:31:29;;;;;;;6.93;6.22;;;13.20;11.10;;;;;;7362383;19;20053;-68
2022/09/02 03:33:59;;;;;;;7.50;5.80;;;13.30;11.00;;;;;;7366127;19;20014;-68
2022/09/02 03:36:32;;;;;;;8.80;6.18;;;13.20;11.70;;;;;;7365456;19;20010;-67
2022/09/02 03:39:06;;;;;;;7.03;6.15;;;13.20;12.00;;;;;;7363397;19;20064;-67
2022/09/02 03:41:39;;;;;;;6.97;6.28;;;13.20;13.30;;;;;;7384285;19;20636;-68
2022/09/02 03:44:11;;;;;;;6.47;5.90;;;13.10;13.30;;;;;;7366166;19;20301;-68
2022/09/02 03:46:41;;;;;;;9.10;7.32;;;13.10;13.20;;;;;;7364521;19;20034;-68
2022/09/02 03:49:11;;;;;;;6.75;6.15;;;13.10;14.00;;;;;;7364072;19;20011;-68
2022/09/02 03:51:43;;;;;;;6.32;5.65;;;13.10;12.60;;;;;;7361884;19;20011;-68
2022/09/02 03:54:15;;;;;;;7.13;5.53;;;13.30;11.90;;;;;;7367149;19;20078;-67
2022/09/02 03:56:45;;;;;;;6.80;6.10;;;13.30;11.30;;;;;;7364831;19;20033;-68
2022/09/02 03:59:15;;;;;;;7.13;6.35;;;13.20;12.80;;;;;;7383689;19;20015;-67
2022/09/02 04:01:45;;;;;;;8.48;6.97;;;13.10;13.90;;;;;;7363958;19;20139;-68
2022/09/02 04:04:15;;;;;;;8.85;7.30;;;12.90;15.20;;;;;;7366983;19;20010;-67
2022/09/02 04:06:51;;;;;;;8.02;7.32;;;12.80;15.80;;;;;;7365107;19;20326;-68
2022/09/02 04:09:23;;;;;;;7.93;7.03;;;12.70;18.60;;;;;;7362000;19;20049;-68
2022/09/02 04:11:53;;;;;;;8.38;7.57;;;12.60;18.50;;;;;;7363850;19;20018;-68
2022/09/02 04:14:23;;;;;;;7.88;7.07;;;12.50;19.10;;;;;;7387834;19;20018;-67
2022/09/02 04:16:53;;;;;;;8.57;7.35;;;12.50;18.90;;;;;;7362976;19;20013;-68
2022/09/02 04:19:23;;;;;;;9.45;7.10;;;12.60;19.40;;;;;;7359984;19;20081;-68
2022/09/02 04:21:53;;;;;;;7.85;7.05;;;12.60;19.30;;;;;;7363325;19;20514;-68
2022/09/02 04:24:26;;;;;;;7.72;7.03;;;12.70;19.00;;;;;;7366155;19;20094;-68
2022/09/02 04:26:55;;;;;;;8.30;7.00;;;12.70;18.40;;;;;;7363825;19;20467;-67
2022/09/02 04:29:33;;;;;;;7.72;6.88;;;12.70;18.10;;;;;;7383490;19;20078;-68
2022/09/02 04:32:02;;;;;;;7.53;6.85;;;12.70;17.60;;;;;;7362547;19;20102;-67
2022/09/02 04:34:32;;;;;;;8.07;7.22;;;12.70;17.00;;;;;;7364987;19;20085;-68
2022/09/02 04:37:02;;;;;;;8.40;7.60;;;12.70;16.90;;;;;;7361925;19;20534;-67
2022/09/02 04:39:35;;;;;;;9.63;7.57;;;12.70;16.90;;;;;;7363760;19;20105;-67
2022/09/02 04:42:05;;;;;;;7.75;6.72;;;12.80;16.90;;;;;;7362476;19;20608;-67
2022/09/02 04:44:35;;;;;;;7.78;6.97;;;12.80;17.00;;;;;;7387966;19;20077;-68
2022/09/02 04:47:05;;;;;;;8.95;6.95;;;12.80;17.00;;;;;;7360201;19;20007;-68
2022/09/02 04:49:35;;;;;;;7.03;6.22;;;12.90;17.00;;;;;;7363742;19;20007;-68
2022/09/02 04:52:06;;;;;;;6.90;6.18;;;12.90;16.70;;;;;;7361565;19;20055;-67
2022/09/02 04:54:38;;;;;;;7.15;6.45;;;13.00;15.30;;;;;;7365083;19;20014;-67
2022/09/02 04:57:08;;;;;;;7.75;6.45;;;13.00;14.40;;;;;;7360019;19;20097;-68
2022/09/02 04:59:38;;;;;;;7.85;6.20;;;13.10;14.50;;;;;;7384983;19;20596;-68
2022/09/02 05:02:09;;;;;;;7.55;6.25;;;13.60;11.30;;;;;;7361798;19;20015;-68
2022/09/02 05:04:39;;;;;;;6.95;6.15;;;14.30;6.60;;;;;;7364985;19;20006;-68
2022/09/02 05:07:10;;;;;;;6.93;5.72;;;14.20;4.80;;;;;;7359233;19;20007;-68
2022/09/02 05:09:44;;;;;;;9.00;6.38;;;14.80;1.00;;;;;;7363225;19;20486;-68
2022/09/02 05:12:15;;;;;;;7.93;5.97;;;15.70;1.00;;;;;;7362524;19;20014;-69
2022/09/02 05:14:47;;;;;;;6.63;5.93;;;16.40;1.00;;;;;;7365200;19;20027;-68
2022/09/02 05:17:17;;;;;;;9.90;5.90;;;16.60;1.00;;;;;;7380599;19;20517;-68
2022/09/02 05:19:47;;;;;;;8.15;5.55;;;16.40;1.00;;;;;;7361600;19;20010;-68
2022/09/02 05:22:18;;;;;;;6.53;5.20;;;16.50;1.00;;;;;;7363448;19;20010;-68
2022/09/02 05:24:51;;;;;;;7.25;5.20;;;16.30;1.00;;;;;;7363391;19;20546;-69
2022/09/02 05:27:22;;;;;;;5.93;5.30;;;16.30;1.00;;;;;;7358874;19;20074;-68
2022/09/02 05:29:58;;;;;;;5.55;4.93;;;16.10;1.00;;;;;;7368406;19;20371;-67
2022/09/02 05:32:29;;;;;;;11.88;5.25;;;15.00;1.00;;;;;;7393185;19;20085;-68
2022/09/02 05:35:06;;;;;;;5.50;5.00;;;14.20;1.00;;;;;;7370195;19;20014;-67
2022/09/02 05:37:36;;;;;;;5.93;5.00;;;14.00;1.00;;;;;;7365379;19;20010;-68
2022/09/02 05:40:11;;;;;;;5.93;5.13;;;14.00;1.00;;;;;;7366061;19;20007;-67
2022/09/02 05:42:43;;;;;;;4.68;4.07;;;14.00;1.80;;;;;;7370448;19;20029;-68
2022/09/02 05:45:17;;;;;;;8.73;5.43;;;14.30;1.00;;;;;;7370732;19;20111;-68
2022/09/02 05:47:47;;;;;;;5.70;5.00;;;14.30;1.00;;;;;;7363607;19;20074;-68
2022/09/02 05:50:17;;;;;;;7.40;5.47;;;14.30;1.00;;;;;;7388598;19;20024;-68
2022/09/02 05:52:51;;;;;;;5.22;4.80;;;14.40;1.00;;;;;;7369030;19;20014;-67
2022/09/02 05:55:24;;;;;;;8.20;5.25;;;14.50;1.00;;;;;;7370583;19;20070;-69
2022/09/02 05:57:54;;;;;;;5.45;4.80;;;14.60;1.00;;;;;;7364013;19;20014;-69
2022/09/02 06:00:24;;;;;;;5.82;4.18;;;14.70;1.00;;;;;;7365368;19;20036;-68
2022/09/02 06:02:54;;;;;;;4.40;3.58;;;14.90;1.00;;;;;;7368569;19;20018;-69
2022/09/02 06:05:24;;;;;;;3.78;3.38;;;15.20;1.00;;;;;;7391676;19;20019;-68
2022/09/02 06:07:54;;;;;;;7.53;3.80;;;15.30;1.00;;;;;;7365756;19;20074;-68
2022/09/02 06:10:26;;;;;;;4.47;3.53;;;15.30;1.00;;;;;;7366912;19;20048;-68
2022/09/02 06:12:56;;;;;;;3.60;3.30;;;15.40;1.00;;;;;;7368891;19;20020;-69
2022/09/02 06:15:29;;;;;;;5.32;3.22;;;15.40;1.00;;;;;;7369321;19;20014;-67
2022/09/02 06:17:59;;;;;;;4.72;3.00;;;15.60;1.00;;;;;;7366060;19;20483;-67
2022/09/02 06:20:31;;;;;;;5.10;3.50;;;15.50;1.00;;;;;;7385998;19;20059;-68
2022/09/02 06:23:01;;;;;;;4.82;3.05;;;15.60;1.00;;;;;;7365186;19;20078;-67
2022/09/02 06:25:33;;;;;;;3.22;2.92;;;15.50;1.00;;;;;;7369436;19;20028;-68
2022/09/02 06:28:04;;;;;;;4.70;3.15;;;15.60;1.00;;;;;;7365677;19;20474;-67
2022/09/02 06:30:36;;;;;;;4.70;3.13;;;15.50;1.00;;;;;;7365542;19;20010;-67
2022/09/02 06:33:06;;;;;;;6.50;3.90;;;15.70;1.00;;;;;;7369446;19;20010;-67
2022/09/02 06:35:39;;;;;;;5.13;3.47;;;15.70;1.00;;;;;;7390553;19;20043;-68
2022/09/02 06:38:10;;;;;;;3.95;2.97;;;15.90;1.00;;;;;;7364934;19;20016;-68
2022/09/02 06:40:48;;;;;;;3.28;2.97;;;16.10;1.00;;;;;;7361892;19;20081;-67
2022/09/02 06:43:18;;;;;;;5.70;3.58;;;16.10;1.00;;;;;;7369427;19;20357;-67
2022/09/02 06:45:48;;;;;;;6.57;3.13;;;16.40;1.00;;;;;;7368273;19;20077;-68
2022/09/02 06:48:18;;;;;;;4.50;2.95;;;16.30;1.00;;;;;;7367777;19;20071;-67
2022/09/02 06:50:48;;;;;;;4.43;2.92;;;16.40;1.00;;;;;;7367864;19;20081;-69
2022/09/02 06:53:18;;;;;;;4.75;3.20;;;16.50;1.00;;;;;;7391572;19;20010;-69
2022/09/02 06:55:51;;;;;;;6.63;2.95;;;16.60;1.00;;;;;;7367589;19;20021;-68
2022/09/02 06:58:21;;;;;;;4.28;2.88;;;16.80;1.00;;;;;;7366251;19;20007;-68
2022/09/02 07:00:51;;;;;;;6.72;5.47;;;16.90;1.00;;;;;;7364571;19;20094;-68
2022/09/02 07:06:08;;;;;;;4.90;2.63;;;17.10;1.00;;;;;;7368029;19;20011;-68
2022/09/02 07:08:39;;;;;;;5.43;2.97;;;17.00;1.00;;;;;;7388648;19;20010;-67
2022/09/02 07:11:19;;;;;;;7.30;3.10;;;16.90;1.00;;;;;;7363831;19;20010;-68
2022/09/02 07:13:49;;;;;;;9.88;3.13;;;17.10;1.00;;;;;;7367972;19;20082;-69
2022/09/02 07:16:20;;;;;;;3.75;2.92;;;17.30;1.00;;;;;;7365040;19;20027;-67
2022/09/02 07:18:56;;;;;;;2.85;2.60;;;17.30;1.00;;;;;;7364141;19;20026;-69
2022/09/02 07:21:27;;;;;;;7.85;3.08;;;17.30;1.00;;;;;;7362904;19;20109;-69
2022/09/02 07:23:59;;;;;;;8.05;3.38;;;17.20;1.00;;;;;;7368718;19;20007;-67
2022/09/02 07:26:31;;;;;;;5.93;2.85;;;17.20;1.00;;;;;;7385339;19;20092;-68
2022/09/02 07:29:01;;;;;;;5.25;3.33;;;17.20;1.00;;;;;;7362605;19;20010;-68
2022/09/02 07:31:31;;;;;;;5.57;3.30;;;17.30;1.00;;;;;;7358790;19;20086;-68
2022/09/02 07:34:01;;;;;;;4.50;3.22;;;17.80;1.00;;;;;;7366184;19;20017;-68
2022/09/02 07:36:31;;;;;;;4.70;2.83;;;17.80;1.00;;;;;;7364707;19;20018;-68
2022/09/02 07:39:01;;;;;;;3.83;2.55;;;18.00;1.00;;;;;;7364191;19;20023;-68
2022/09/02 07:41:33;;;;;;;4.82;3.28;;;17.90;1.00;;;;;;7381665;19;20025;-68
2022/09/02 07:44:04;;;;;;;5.30;3.17;;;18.00;1.00;;;;;;7365389;19;20091;-67
2022/09/02 07:46:35;;;;;;;4.28;2.88;;;18.10;1.00;;;;;;7363562;19;20019;-68
2022/09/02 07:49:08;;;;;;;3.40;3.00;;;18.10;1.00;;;;;;7364003;19;20156;-68
2022/09/02 07:51:42;;;;;;;3.65;2.40;;;18.00;1.00;;;;;;7361069;19;20074;-68
2022/09/02 07:54:13;;;;;;;3.20;2.30;;;18.30;1.00;;;;;;7366283;19;20027;-68
2022/09/02 07:56:48;;;;;;;6.10;2.38;;;18.70;1.00;;;;;;7363152;19;20010;-68
2022/09/02 07:59:18;;;;;;;5.30;2.55;;;18.80;1.00;;;;;;7385098;19;20006;-69
2022/09/02 08:01:50;;;;;;;3.03;2.30;;;18.80;1.00;;;;;;7358537;19;20086;-68
2022/09/02 08:04:22;;;;;;;3.03;2.40;;;19.00;1.00;;;;;;7365097;19;20010;-68
2022/09/02 08:06:52;;;;;;;4.47;2.22;;;18.90;1.00;;;;;;7364473;19;20031;-67
2022/09/02 08:09:23;;;;;;;2.28;2.00;;;18.80;1.00;;;;;;7363532;19;20006;-68
2022/09/02 08:11:56;;;;;;;6.15;2.60;;;18.70;1.00;;;;;;7359587;19;20025;-68
2022/09/02 08:14:28;;;;;;;3.45;2.28;;;19.00;1.00;;;;;;7386150;19;20491;-68
2022/09/02 08:16:59;;;;;;;2.53;1.80;;;19.20;1.00;;;;;;7360849;19;20118;-68
2022/09/02 08:19:29;;;;;;;4.03;2.20;;;19.40;1.00;;;;;;7364726;19;20409;-68
2022/09/02 08:22:04;;;;;;;3.22;2.17;;;19.20;1.00;;;;;;7359740;19;20492;-67
2022/09/02 08:24:34;;;;;;;4.18;2.05;;;19.10;1.00;;;;;;7365140;19;20436;-68
2022/09/02 08:27:07;;;;;;;3.03;2.20;;;19.40;1.00;;;;;;7358620;19;20034;-67
2022/09/02 08:29:37;;;;;;;2.92;1.77;;;19.70;1.00;;;;;;7386777;19;20035;-68
2022/09/02 08:32:07;;;;;;;4.38;1.67;;;19.50;1.00;;;;;;7359516;19;20023;-68
2022/09/02 08:34:37;;;;;;;2.42;1.88;;;19.40;1.00;;;;;;7363395;19;20018;-66
2022/09/02 08:37:07;;;;;;;5.22;1.80;;;19.30;1.00;;;;;;7360066;19;20118;-68
2022/09/02 08:39:37;;;;;;;3.42;2.00;;;19.80;1.00;;;;;;7364304;19;20049;-68
2022/09/02 08:42:17;;;;;;;2.13;1.75;;;19.80;1.00;;;;;;7359847;19;20393;-68
2022/09/02 08:44:47;;;;;;;5.95;1.80;;;20.00;1.00;;;;;;7364589;19;20017;-68
2022/09/02 08:47:23;;;;;;;2.53;1.70;;;20.20;1.00;;;;;;7379780;19;20018;-68
2022/09/02 08:49:56;;;;;;;3.08;1.70;;;20.40;1.00;;;;;;7363757;19;20011;-67
2022/09/02 08:52:33;;;;;;;3.53;1.67;;;20.70;1.00;;;;;;7358857;19;20010;-68
2022/09/02 08:55:05;;;;;;;4.93;1.77;;;20.90;1.00;;;;;;7362709;19;20090;-68
2022/09/02 08:57:37;;;;;;;1.63;1.52;;;20.50;1.00;;;;;;7358769;19;20021;-68
2022/09/02 09:00:14;;;;;;;3.22;1.73;;;20.50;1.00;;;;;;7363668;19;20017;-68
2022/09/02 09:02:58;;;;;;;2.85;2.25;;;20.50;1.00;;;;;;7358991;19;20493;-68
2022/09/02 09:05:45;;;;;;;2.30;1.30;;;20.80;1.00;;;;;;7392345;19;20121;-68
2022/09/02 09:08:22;;;;;;;3.28;1.50;;;20.80;1.00;;;;;;7367103;19;20267;-68
2022/09/02 09:11:00;;;;;;;2.75;1.52;;;21.00;1.00;;;;;;7365456;19;20019;-68
2022/09/02 09:14:12;;;;;;;2.95;1.67;;;21.10;1.00;;;;;;7370541;19;20040;-68
2022/09/02 09:16:46;;;;;;;2.72;1.70;;;21.30;1.00;;;;;;7366350;19;20014;-68
2022/09/02 09:19:18;;;;;;;2.75;1.80;;;21.50;1.00;;;;;;7368093;19;20002;-67
2022/09/02 09:21:48;;;;;;;4.57;1.90;;;21.60;1.00;;;;;;7366273;19;20025;-68
2022/09/02 09:24:28;;;;;;;1.67;1.20;;;21.70;1.00;;;;;;7370543;19;20110;-68
2022/09/02 09:26:59;;;;;;;2.50;1.20;;;21.70;1.00;;;;;;7366976;19;20020;-69
2022/09/02 09:29:35;;;;;;;2.13;1.50;;;21.30;1.00;;;;;;7390963;19;20019;-68
2022/09/02 09:32:08;;;;;;;5.47;4.00;;;20.90;1.00;;;;;;7364649;19;20681;-68
2022/09/02 09:35:00;;;;;;;3.25;1.60;;;21.60;1.00;;;;;;7368317;19;20014;-69
2022/09/02 09:37:33;;;;;;;3.35;1.35;;;21.40;1.00;;;;;;7365105;19;20033;-68
2022/09/02 09:40:34;;;;;;;2.30;1.23;;;21.60;1.00;;;;;;7369885;19;20424;-68
2022/09/02 09:43:15;;;;;;;2.40;1.40;;;21.60;1.00;;;;;;7363978;19;20024;-68
2022/09/02 09:45:50;;;;;;;1.20;1.10;;;21.30;1.00;;;;;;7369145;19;20021;-67
2022/09/02 09:48:26;;;;;;;1.88;1.20;;;21.70;1.00;;;;;;7365739;19;20094;-68
2022/09/02 09:51:14;;;;;;;5.30;1.35;;;21.80;1.00;;;;;;7366439;19;20470;-68
2022/09/02 09:53:45;;;;;;;1.45;1.13;;;22.10;1.00;;;;;;7369912;19;20014;-70
2022/09/02 09:56:35;;;;;;;2.67;1.30;;;22.20;1.00;;;;;;7391090;19;20006;-69
2022/09/02 09:59:10;;;;;;;2.00;1.23;;;22.20;1.00;;;;;;7366473;19;20056;-68
2022/09/02 10:01:54;;;;;;;1.08;0.98;;;22.10;1.00;;;;;;7362866;19;20048;-68
2022/09/02 10:04:30;;;;;;;1.92;1.17;;;22.40;1.00;;;;;;7369705;19;20011;-69
2022/09/02 10:07:12;;;;;;;3.72;1.20;;;22.30;1.00;;;;;;7361887;19;20021;-69
2022/09/02 10:09:43;;;;;;;3.63;1.90;;;22.10;1.00;;;;;;7368740;19;20018;-68
2022/09/02 10:12:15;;;;;;;1.63;1.10;;;22.30;1.00;;;;;;7364075;19;20006;-68
2022/09/02 10:14:47;;;;;;;1.77;1.27;;;22.40;1.00;;;;;;7368481;19;20102;-68
2022/09/02 10:17:33;;;;;;;3.97;1.20;;;22.40;1.00;;;;;;7382577;19;20020;-68
2022/09/02 10:20:11;;;;;;;1.80;1.20;;;22.40;1.00;;;;;;7367429;19;20025;-68
2022/09/02 10:23:18;;;;;;;2.78;1.48;;;22.50;1.00;;;;;;7360856;19;20014;-68
2022/09/02 10:26:00;;;;;;;2.38;1.50;;;22.70;1.00;;;;;;7368202;19;20220;-68
2022/09/02 10:28:44;;;;;;;3.00;1.20;;;22.60;1.00;;;;;;7365442;19;20024;-68
2022/09/02 10:31:22;;;;;;;2.38;1.33;;;22.90;1.00;;;;;;7363954;19;20473;-68
2022/09/02 10:34:08;;;;;;;2.33;1.20;;;22.90;1.00;;;;;;7370089;19;20014;-67
2022/09/02 10:36:49;;;;;;;4.55;1.73;;;22.80;1.00;;;;;;7367058;19;20053;-68
2022/09/02 10:39:28;;;;;;;1.20;1.10;;;23.20;1.00;;;;;;7366749;19;20013;-68
2022/09/02 10:42:06;;;;;;;3.10;1.38;;;22.90;1.00;;;;;;7363293;19;20172;-67
2022/09/02 10:44:46;;;;;;;2.90;1.25;;;22.90;1.00;;;;;;7390673;19;20023;-68
2022/09/02 10:47:23;;;;;;;3.38;1.10;;;22.40;1.00;;;;;;7362427;19;20453;-68
2022/09/02 10:50:12;;;;;;;1.88;1.23;;;22.70;1.00;;;;;;7369049;19;20025;-68
2022/09/02 10:53:09;;;;;;;3.97;1.00;;;22.60;1.00;;;;;;7363638;19;20011;-68
2022/09/02 10:55:49;;;;;;;1.67;1.08;;;22.90;1.00;;;;;;7367838;19;20028;-68
2022/09/02 10:58:24;;;;;;;3.80;1.35;;;22.30;1.00;;;;;;7365193;19;20089;-68
2022/09/02 11:00:58;;;;;;;1.70;1.27;;;22.40;1.00;;;;;;7365728;19;20089;-69
2022/09/02 11:03:34;;;;;;;3.00;1.30;;;22.40;1.00;;;;;;7365180;19;20002;-69
2022/09/02 11:06:14;;;;;;;1.10;1.00;;;22.30;1.00;;;;;;7365608;19;20448;-68
2022/09/02 11:08:49;;;;;;;2.65;1.30;;;22.20;1.00;;;;;;7361589;19;20174;-68
2022/09/02 11:11:22;;;;;;;1.00;0.90;;;22.60;1.00;;;;;;7381706;19;20053;-69
2022/09/02 11:14:00;;;;;;;4.05;1.00;;;22.70;1.00;;;;;;7365598;19;20022;-68
2022/09/02 11:16:34;;;;;;;2.00;1.05;;;22.80;1.00;;;;;;7364775;19;20374;-68
2022/09/02 11:19:33;;;;;;;2.80;1.13;;;22.70;1.00;;;;;;7364851;19;20478;-68
2022/09/02 11:22:15;;;;;;;1.73;1.13;;;23.00;1.00;;;;;;7361109;19;20019;-68
2022/09/02 11:24:51;;;;;;;2.70;1.17;;;23.00;1.00;;;;;;7364688;19;20011;-67
2022/09/02 11:27:32;;;;;;;5.15;1.25;;;23.40;1.00;;;;;;7361493;19;20011;-68
2022/09/02 11:30:15;;;;;;;1.50;1.02;;;23.60;1.00;;;;;;7366679;19;20550;-68
2022/09/02 11:32:50;;;;;;;1.58;0.90;;;23.60;1.00;;;;;;7360042;19;20118;-68
2022/09/02 11:35:25;;;;;;;5.55;1.48;;;23.00;1.00;;;;;;7388105;19;21233;-68
2022/09/02 11:38:03;;;;;;;3.53;1.20;;;23.10;1.00;;;;;;7360643;19;20038;-68
2022/09/02 11:40:55;;;;;;;2.00;1.00;;;23.30;1.00;;;;;;7366225;19;20020;-69
2022/09/02 11:43:49;;;;;;;2.92;1.20;;;23.30;1.00;;;;;;7363686;19;20021;-69
2022/09/02 11:46:41;;;;;;;1.80;1.30;;;23.20;1.00;;;;;;7365096;19;20031;-68
2022/09/02 11:49:34;;;;;;;5.53;1.20;;;23.60;1.00;;;;;;7362526;19;20014;-68
2022/09/02 11:52:22;;;;;;;1.20;1.10;;;23.80;1.00;;;;;;7358553;19;20029;-68
2022/09/02 11:55:18;;;;;;;1.27;1.13;;;23.40;1.00;;;;;;7366068;19;20014;-68
2022/09/02 11:57:56;;;;;;;2.85;0.90;;;23.00;1.00;;;;;;7361975;19;20023;-70
2022/09/02 12:00:30;;;;;;;1.20;0.90;;;22.80;1.00;;;;;;7364547;19;20006;-68
2022/09/02 12:03:14;;;;;;;2.55;1.13;;;22.90;1.00;;;;;;7358431;19;20049;-69
2022/09/02 12:06:10;;;;;;;1.73;0.93;;;22.90;1.00;;;;;;7365244;19;20017;-68
2022/09/02 12:09:01;;;;;;;1.25;1.05;;;23.20;1.00;;;;;;7384077;19;20018;-68
2022/09/02 12:11:45;;;;;;;1.38;0.90;;;23.10;1.00;;;;;;7359640;19;20014;-69
2022/09/02 12:14:45;;;;;;;4.65;1.30;;;22.80;1.00;;;;;;7365035;19;20836;-68
2022/09/02 12:17:41;;;;;;;1.48;1.08;;;22.90;1.00;;;;;;7361378;19;20121;-68
2022/09/02 12:20:33;;;;;;;1.33;1.20;;;23.10;1.00;;;;;;7366247;19;20010;-68
2022/09/02 12:23:02;;;;;;;3.50;1.10;;;23.00;1.00;;;;;;7359102;19;20498;-68
2022/09/02 12:25:41;;;;;;;1.10;1.00;;;23.50;1.00;;;;;;7364379;19;20018;-67
2022/09/02 12:28:25;;;;;;;2.28;0.98;;;23.30;1.00;;;;;;7359921;19;20035;-68
2022/09/02 12:31:16;;;;;;;2.97;1.60;;;23.50;1.00;;;;;;7359343;19;20772;-68
2022/09/02 12:33:53;;;;;;;2.20;1.08;;;23.70;1.00;;;;;;7362557;19;20010;-70
2022/09/02 12:36:48;;;;;;;1.70;1.00;;;23.50;1.00;;;;;;7363272;19;20007;-68
2022/09/02 12:39:54;;;;;;;1.73;1.00;;;23.50;1.00;;;;;;7359248;19;20029;-68
2022/09/02 12:42:32;;;;;;;3.45;1.17;;;23.80;1.00;;;;;;7358998;19;20473;-67
2022/09/02 12:45:14;;;;;;;1.25;0.98;;;24.10;1.00;;;;;;7359518;19;20006;-69
2022/09/02 12:47:59;;;;;;;4.32;1.55;;;24.10;1.00;;;;;;7357828;19;20691;-68
2022/09/02 12:50:31;;;;;;;1.98;1.10;;;24.20;1.00;;;;;;7384357;19;20031;-68
2022/09/02 12:53:28;;;;;;;2.17;1.00;;;23.60;1.00;;;;;;7356802;19;20373;-68
2022/09/02 12:56:00;;;;;;;1.67;1.02;;;23.60;1.00;;;;;;7363937;19;20014;-68
2022/09/02 12:58:35;;;;;;;3.78;0.95;;;23.80;1.00;;;;;;7358538;19;20059;-66
2022/09/02 13:01:16;;;;;;;2.63;0.90;;;23.90;1.00;;;;;;7358638;19;20376;-68
2022/09/02 13:04:21;;;;;;;1.83;0.90;;;24.10;1.00;;;;;;7362673;19;20013;-68
2022/09/02 13:07:34;;;;;;;1.67;1.30;;;24.30;1.00;;;;;;7361392;19;20014;-68
2022/09/02 13:10:39;;;;;;;8.65;1.30;;;24.40;1.00;;;;;;7359852;19;20010;-68
2022/09/02 13:13:48;;;;;;;1.33;0.80;;;24.50;1.00;;;;;;7355764;19;20066;-68
2022/09/02 13:16:31;;;;;;;3.97;1.15;;;24.40;1.00;;;;;;7362749;19;20485;-68
2022/09/02 13:19:24;;;;;;;5.72;1.20;;;24.50;1.00;;;;;;7359389;19;20011;-67
2022/09/02 13:22:25;;;;;;;2.80;1.10;;;24.30;1.00;;;;;;7356333;19;20015;-68
2022/09/02 13:25:23;;;;;;;4.40;1.30;;;24.30;1.00;;;;;;7361515;19;20091;-68
2022/09/02 13:28:09;;;;;;;4.30;1.50;;;24.50;1.00;;;;;;7357429;19;20010;-68
2022/09/02 13:31:12;;;;;;;1.70;1.00;;;24.70;1.00;;;;;;7362712;19;20014;-68
2022/09/02 13:33:45;;;;;;;4.28;0.93;;;24.10;1.00;;;;;;7363962;19;20011;-68
2022/09/02 13:36:26;;;;;;;4.30;1.33;;;24.20;1.00;;;;;;7363062;19;20011;-67
2022/09/02 13:38:56;;;;;;;69.38;4.45;;;24.40;1.00;;;;;;7360559;19;20101;-67
2022/09/02 13:41:33;;;;;;;3.95;1.30;;;24.40;1.00;;;;;;7379067;19;20009;-69